Time;durP1;ratioP1;P1;durP2;ratioP2;P2;SDS_P1;SDS_P2;PMS_P1;PMS_P2;Temp;Humidity;BMP_temperature;BMP_pressure;BME280_temperature;BME280_humidity;BME280_pressure;Samples;Min_cycle;Max_cycle;Signal;HPM_P1;HPM_P2
2023/01/06 00:02:20;;;;;;;17.17;7.85;;;11.00;99.90;;;;;;5053254;28;20120;-73
2023/01/06 00:04:46;;;;;;;15.93;7.35;;;11.00;99.90;;;;;;5038105;28;20049;-73
2023/01/06 00:07:11;;;;;;;21.70;8.70;;;11.00;99.90;;;;;;5054470;28;20409;-73
2023/01/06 00:09:37;;;;;;;20.60;7.82;;;11.00;99.90;;;;;;5037088;28;20041;-73
2023/01/06 00:12:03;;;;;;;16.75;6.65;;;11.00;99.90;;;;;;5037213;28;20467;-73
2023/01/06 00:14:28;;;;;;;18.83;7.65;;;11.00;99.90;;;;;;5054464;28;20047;-73
2023/01/06 00:16:54;;;;;;;22.92;8.85;;;11.00;99.90;;;;;;5051835;28;20138;-73
2023/01/06 00:19:20;;;;;;;23.52;8.10;;;11.00;99.90;;;;;;5037771;28;20037;-73
2023/01/06 00:21:45;;;;;;;16.80;7.85;;;11.00;99.90;;;;;;5036355;28;20497;-73
2023/01/06 00:24:11;;;;;;;23.83;9.30;;;10.90;99.90;;;;;;5037540;28;20115;-73
2023/01/06 00:26:37;;;;;;;21.33;7.72;;;11.00;99.90;;;;;;5053101;28;20045;-73
2023/01/06 00:29:03;;;;;;;22.73;7.97;;;11.10;99.90;;;;;;5054377;28;20485;-73
2023/01/06 00:31:28;;;;;;;18.55;7.40;;;11.00;99.90;;;;;;5054312;28;20045;-73
2023/01/06 00:33:56;;;;;;;20.08;8.80;;;11.00;99.90;;;;;;5053359;28;20047;-73
2023/01/06 00:36:22;;;;;;;18.23;7.72;;;11.10;99.90;;;;;;5036525;28;20052;-73
2023/01/06 00:38:49;;;;;;;20.55;6.95;;;11.00;99.90;;;;;;5054001;28;20087;-73
2023/01/06 00:44:00;;;;;;;19.65;7.10;;;11.10;99.90;;;;;;5053130;28;20036;-73
2023/01/06 00:46:32;;;;;;;20.63;7.53;;;11.10;99.90;;;;;;5034967;28;20127;-73
2023/01/06 00:48:59;;;;;;;19.73;7.35;;;11.10;99.90;;;;;;5037291;28;20033;-73
2023/01/06 00:51:25;;;;;;;13.38;5.72;;;11.00;99.90;;;;;;5037401;28;20049;-73
2023/01/06 00:53:50;;;;;;;17.92;7.35;;;11.10;99.90;;;;;;5036688;28;20044;-73
2023/01/06 00:56:16;;;;;;;16.67;7.20;;;11.10;99.90;;;;;;5036164;28;20059;-73
2023/01/06 00:58:42;;;;;;;16.40;6.32;;;11.20;99.90;;;;;;5035928;28;20041;-73
2023/01/06 01:01:08;;;;;;;16.85;7.35;;;11.20;99.90;;;;;;5053709;28;20067;-73
2023/01/06 01:03:35;;;;;;;15.32;6.82;;;11.10;99.90;;;;;;5036155;28;20045;-74
2023/01/06 01:06:03;;;;;;;17.70;6.88;;;11.10;99.90;;;;;;5035032;28;20045;-73
2023/01/06 01:08:29;;;;;;;12.85;6.35;;;11.20;99.90;;;;;;5053635;28;20060;-73
2023/01/06 01:11:01;;;;;;;17.38;7.03;;;11.20;99.90;;;;;;5053419;28;20476;-73
2023/01/06 01:13:26;;;;;;;17.17;6.90;;;11.20;99.90;;;;;;5052538;28;20563;-73
2023/01/06 01:15:52;;;;;;;17.98;6.85;;;11.20;99.90;;;;;;5035885;28;20079;-73
2023/01/06 01:18:17;;;;;;;15.48;6.57;;;11.10;99.90;;;;;;5053086;28;20037;-73
2023/01/06 01:20:46;;;;;;;14.80;6.38;;;11.20;99.90;;;;;;5053474;28;20033;-73
2023/01/06 01:23:11;;;;;;;12.65;6.22;;;11.10;99.90;;;;;;5051701;28;20049;-73
2023/01/06 01:25:39;;;;;;;12.73;5.53;;;11.00;99.90;;;;;;5051437;28;20171;-73
2023/01/06 01:28:05;;;;;;;11.95;4.63;;;11.10;99.90;;;;;;5050945;28;20562;-73
2023/01/06 01:30:31;;;;;;;10.63;4.82;;;11.10;99.90;;;;;;5036532;28;20405;-73
2023/01/06 01:32:56;;;;;;;10.48;5.10;;;11.10;99.90;;;;;;5052130;28;20033;-73
2023/01/06 01:35:22;;;;;;;10.80;4.60;;;11.10;99.90;;;;;;5052912;28;20132;-73
2023/01/06 01:37:47;;;;;;;12.48;4.78;;;11.00;99.90;;;;;;5051902;28;20037;-72
2023/01/06 01:40:13;;;;;;;10.55;5.07;;;11.10;99.90;;;;;;5036208;28;20044;-73
2023/01/06 01:42:39;;;;;;;13.10;5.25;;;11.10;99.90;;;;;;5052120;28;20500;-73
2023/01/06 01:45:21;;;;;;;12.32;5.80;;;11.00;99.90;;;;;;5036355;28;20052;-73
2023/01/06 01:47:53;;;;;;;;;;;11.00;99.90;;;;;;5052171;28;20041;-73
2023/01/06 01:50:43;;;;;;;9.83;4.57;;;11.00;99.90;;;;;;5053009;28;19917;-73
2023/01/06 01:53:19;;;;;;;9.95;5.38;;;11.10;99.90;;;;;;5035366;28;20036;-73
2023/01/06 01:55:44;;;;;;;10.23;5.45;;;11.00;99.90;;;;;;5052761;28;20058;-73
2023/01/06 01:58:14;;;;;;;11.40;5.90;;;11.10;99.90;;;;;;5035381;28;20120;-74
2023/01/06 02:00:42;;;;;;;9.63;4.45;;;11.10;99.90;;;;;;5035018;28;20090;-73
2023/01/06 02:03:09;;;;;;;10.13;5.40;;;11.10;99.90;;;;;;5051398;28;20057;-73
2023/01/06 02:05:38;;;;;;;10.05;5.57;;;11.10;99.90;;;;;;5052357;28;20039;-73
2023/01/06 02:08:12;;;;;;;13.73;6.53;;;11.10;99.90;;;;;;5034854;28;20131;-73
2023/01/06 02:10:38;;;;;;;11.63;6.25;;;11.00;99.90;;;;;;5052262;28;20131;-73
2023/01/06 02:13:03;;;;;;;12.30;6.10;;;11.10;99.90;;;;;;5034118;28;20123;-73
2023/01/06 02:15:31;;;;;;;11.27;5.05;;;11.00;99.90;;;;;;5047994;28;20521;-73
2023/01/06 02:18:15;;;;;;;11.60;5.32;;;11.00;99.90;;;;;;5031784;28;20045;-73
2023/01/06 02:21:07;;;;;;;12.55;6.32;;;11.00;99.90;;;;;;5052439;28;20041;-73
2023/01/06 02:23:33;;;;;;;11.23;4.75;;;10.90;99.90;;;;;;5051667;28;20118;-73
2023/01/06 02:26:27;;;;;;;9.80;4.93;;;11.00;99.90;;;;;;5051560;28;20485;-73
2023/01/06 02:29:37;;;;;;;8.18;4.07;;;11.00;99.90;;;;;;5050184;28;20037;-73
2023/01/06 02:32:35;;;;;;;10.75;4.22;;;11.00;99.90;;;;;;5052025;28;20508;-73
2023/01/06 02:35:15;;;;;;;11.85;4.72;;;11.00;99.90;;;;;;5035443;28;20052;-73
2023/01/06 02:37:56;;;;;;;11.80;5.03;;;11.00;99.90;;;;;;5045281;28;20045;-73
2023/01/06 02:40:48;;;;;;;10.32;4.55;;;11.00;99.90;;;;;;5051855;28;20501;-73
2023/01/06 02:43:36;;;;;;;9.48;4.65;;;11.00;99.90;;;;;;5032092;28;20486;-73
2023/01/06 02:46:19;;;;;;;10.00;4.13;;;10.90;99.90;;;;;;5031575;28;20044;-73
2023/01/06 02:49:25;;;;;;;8.02;3.70;;;11.00;99.90;;;;;;5031934;28;20037;-73
2023/01/06 02:52:19;;;;;;;9.43;3.92;;;11.00;99.90;;;;;;5049939;28;20043;-73
2023/01/06 02:55:03;;;;;;;8.00;3.78;;;11.00;99.90;;;;;;5048536;28;20045;-73
2023/01/06 02:57:44;;;;;;;9.70;4.50;;;11.00;99.90;;;;;;5031662;28;20049;-73
2023/01/06 03:00:32;;;;;;;8.98;3.75;;;11.00;99.90;;;;;;5046479;28;20040;-73
2023/01/06 03:03:16;;;;;;;9.98;4.28;;;11.00;99.90;;;;;;5050757;28;20053;-73
2023/01/06 03:05:46;;;;;;;7.50;4.13;;;11.00;99.90;;;;;;5051676;28;20481;-73
2023/01/06 03:08:16;;;;;;;7.40;3.97;;;11.00;99.90;;;;;;5032785;28;20044;-73
2023/01/06 03:10:45;;;;;;;10.70;4.15;;;11.00;99.90;;;;;;5031269;28;20069;-73
2023/01/06 03:13:26;;;;;;;7.85;3.92;;;10.90;99.90;;;;;;5016567;28;20045;-73
2023/01/06 03:15:51;;;;;;;8.38;4.20;;;10.90;99.90;;;;;;5051808;28;20048;-73
2023/01/06 03:18:17;;;;;;;7.85;3.78;;;10.90;99.90;;;;;;5034150;28;20033;-73
2023/01/06 03:20:43;;;;;;;6.75;3.10;;;10.90;99.90;;;;;;5034986;28;20500;-73
2023/01/06 03:23:08;;;;;;;8.52;3.55;;;11.00;99.90;;;;;;5034401;28;20037;-73
2023/01/06 03:25:36;;;;;;;9.77;3.92;;;10.90;99.90;;;;;;5034774;28;20033;-73
2023/01/06 03:28:02;;;;;;;8.45;3.58;;;11.00;99.90;;;;;;5034246;28;20049;-74
2023/01/06 03:30:40;;;;;;;10.65;4.25;;;11.00;99.90;;;;;;5036360;28;20511;-74
2023/01/06 03:33:24;;;;;;;6.82;3.58;;;10.90;99.90;;;;;;5037395;28;20040;-73
2023/01/06 03:36:19;;;;;;;6.93;3.50;;;10.90;99.90;;;;;;5055030;28;20041;-73
2023/01/06 03:39:06;;;;;;;9.20;3.08;;;10.90;99.90;;;;;;4998790;28;20049;-74
2023/01/06 03:45:01;;;;;;;8.38;3.00;;;10.90;99.90;;;;;;5034895;28;20041;-73
2023/01/06 03:47:54;;;;;;;6.80;3.60;;;11.00;99.90;;;;;;5041708;28;20045;-73
2023/01/06 03:50:31;;;;;;;8.43;3.67;;;10.90;99.90;;;;;;5054870;28;20048;-73
2023/01/06 03:53:22;;;;;;;9.90;4.30;;;10.90;99.90;;;;;;5054264;28;20051;-73
2023/01/06 03:55:56;;;;;;;9.30;4.00;;;10.90;99.90;;;;;;5054602;28;20049;-74
2023/01/06 03:58:25;;;;;;;7.47;4.10;;;10.90;99.90;;;;;;5052889;28;20078;-73
2023/01/06 04:00:51;;;;;;;8.68;4.43;;;10.90;99.90;;;;;;5054743;28;20505;-73
2023/01/06 04:03:16;;;;;;;7.85;4.07;;;10.90;99.90;;;;;;5037182;28;20088;-73
2023/01/06 04:05:42;;;;;;;9.65;4.38;;;10.90;99.90;;;;;;5037737;28;20037;-73
2023/01/06 04:08:07;;;;;;;8.50;3.90;;;10.90;99.90;;;;;;5054574;28;20120;-73
2023/01/06 04:10:33;;;;;;;9.93;5.15;;;10.90;99.90;;;;;;5037987;28;20079;-73
2023/01/06 04:12:59;;;;;;;8.68;4.38;;;10.90;99.90;;;;;;5053729;28;20489;-73
2023/01/06 04:15:28;;;;;;;7.53;3.38;;;10.90;99.90;;;;;;5037858;28;20076;-73
2023/01/06 04:17:53;;;;;;;8.77;4.15;;;10.90;99.90;;;;;;5053572;28;20124;-73
2023/01/06 04:20:22;;;;;;;8.30;3.65;;;10.90;99.90;;;;;;5037290;28;20112;-73
2023/01/06 04:22:47;;;;;;;9.25;4.13;;;10.90;99.90;;;;;;5036950;28;20079;-73
2023/01/06 04:25:14;;;;;;;6.45;2.95;;;10.90;99.90;;;;;;5037188;28;20053;-73
2023/01/06 04:27:40;;;;;;;5.88;2.97;;;10.90;99.90;;;;;;5037921;28;20159;-73
2023/01/06 04:30:06;;;;;;;5.07;2.58;;;10.90;99.90;;;;;;5036316;28;20036;-73
2023/01/06 04:32:32;;;;;;;5.60;2.30;;;10.90;99.90;;;;;;5052937;28;20056;-74
2023/01/06 04:34:57;;;;;;;9.88;3.30;;;10.90;99.90;;;;;;5053090;28;20044;-73
2023/01/06 04:37:23;;;;;;;5.50;2.67;;;10.90;99.90;;;;;;5054055;28;20516;-74
2023/01/06 04:39:48;;;;;;;7.35;2.65;;;10.90;99.90;;;;;;5054163;28;20037;-73
2023/01/06 04:42:14;;;;;;;5.13;2.35;;;10.90;99.90;;;;;;5036237;28;20032;-74
2023/01/06 04:44:41;;;;;;;7.57;2.40;;;10.90;99.90;;;;;;5053057;28;20079;-73
2023/01/06 04:47:07;;;;;;;6.55;2.42;;;10.90;99.90;;;;;;5053855;28;20527;-73
2023/01/06 04:49:33;;;;;;;7.60;2.60;;;10.90;99.90;;;;;;5036405;28;20501;-73
2023/01/06 04:51:58;;;;;;;5.75;2.33;;;10.90;99.90;;;;;;5034257;28;20044;-73
2023/01/06 04:54:24;;;;;;;6.18;2.50;;;10.90;99.90;;;;;;5037155;28;20485;-73
2023/01/06 04:56:49;;;;;;;6.75;2.85;;;10.90;99.90;;;;;;5028995;28;20423;-73
2023/01/06 04:59:15;;;;;;;7.25;3.20;;;10.90;99.90;;;;;;5030542;28;20045;-73
2023/01/06 05:01:40;;;;;;;4.05;1.98;;;10.90;99.90;;;;;;5045283;28;20080;-73
2023/01/06 05:04:06;;;;;;;5.82;2.15;;;10.90;99.90;;;;;;5033328;28;20079;-73
2023/01/06 05:06:32;;;;;;;6.05;2.40;;;10.90;99.90;;;;;;5024070;28;20048;-73
2023/01/06 05:08:58;;;;;;;6.40;3.08;;;10.90;99.90;;;;;;5045345;28;20041;-73
2023/01/06 05:11:25;;;;;;;4.07;2.35;;;10.90;99.90;;;;;;5036788;28;20055;-73
2023/01/06 05:13:52;;;;;;;7.97;3.50;;;10.90;99.90;;;;;;5052626;28;20041;-72
2023/01/06 05:16:22;;;;;;;8.90;3.30;;;10.90;99.90;;;;;;5035620;28;20044;-73
2023/01/06 05:18:48;;;;;;;5.07;2.22;;;10.90;99.90;;;;;;5053256;28;20473;-73
2023/01/06 05:21:13;;;;;;;6.13;2.47;;;10.90;99.90;;;;;;5034950;28;20044;-73
2023/01/06 05:23:40;;;;;;;8.00;3.75;;;10.90;99.90;;;;;;5043075;28;20041;-72
2023/01/06 05:26:06;;;;;;;7.20;2.60;;;10.90;99.90;;;;;;5034932;28;20037;-73
2023/01/06 05:28:32;;;;;;;9.13;4.00;;;10.90;99.90;;;;;;5050672;28;20496;-73
2023/01/06 05:30:59;;;;;;;8.57;4.05;;;11.00;99.90;;;;;;5051793;28;20059;-73
2023/01/06 05:33:25;;;;;;;7.28;3.38;;;10.90;99.90;;;;;;5051780;28;20044;-73
2023/01/06 05:36:01;;;;;;;6.40;3.72;;;10.90;99.90;;;;;;5060113;28;20041;-73
2023/01/06 05:38:26;;;;;;;6.05;3.22;;;10.90;99.90;;;;;;5036186;28;20086;-72
2023/01/06 05:40:53;;;;;;;6.63;3.97;;;10.90;99.90;;;;;;5052343;28;20037;-73
2023/01/06 05:43:19;;;;;;;4.63;2.60;;;10.90;99.90;;;;;;5050679;28;20033;-73
2023/01/06 05:45:45;;;;;;;8.02;3.65;;;10.90;99.90;;;;;;5051830;28;20033;-73
2023/01/06 05:48:10;;;;;;;7.22;3.53;;;10.90;99.90;;;;;;5033653;28;20378;-73
2023/01/06 05:50:36;;;;;;;3.75;2.30;;;10.90;99.90;;;;;;5034929;28;20045;-73
2023/01/06 05:53:01;;;;;;;7.95;3.47;;;10.90;99.90;;;;;;5033861;28;20024;-73
2023/01/06 05:55:27;;;;;;;4.93;2.60;;;10.90;99.90;;;;;;5034558;28;20508;-73
2023/01/06 05:57:53;;;;;;;6.10;3.08;;;10.90;99.90;;;;;;5034271;28;20123;-73
2023/01/06 06:00:18;;;;;;;6.53;2.60;;;10.90;99.90;;;;;;5050235;28;20037;-73
2023/01/06 06:02:44;;;;;;;7.53;2.95;;;10.90;99.90;;;;;;5047849;28;20045;-73
2023/01/06 06:05:10;;;;;;;6.88;2.95;;;10.90;99.90;;;;;;5028215;28;20037;-72
2023/01/06 06:07:35;;;;;;;5.82;2.88;;;10.90;99.90;;;;;;5052590;28;20040;-73
2023/01/06 06:10:01;;;;;;;5.90;3.25;;;10.90;99.90;;;;;;5048296;28;20132;-73
2023/01/06 06:12:26;;;;;;;6.20;3.53;;;10.80;99.90;;;;;;5050639;28;20047;-73
2023/01/06 06:14:52;;;;;;;8.68;3.70;;;10.80;99.90;;;;;;5048363;28;20468;-73
2023/01/06 06:17:18;;;;;;;7.43;3.15;;;10.80;99.90;;;;;;5049314;28;20041;-73
2023/01/06 06:19:43;;;;;;;7.90;3.20;;;10.80;99.90;;;;;;5050897;28;20548;-72
2023/01/06 06:22:09;;;;;;;6.88;4.10;;;10.80;99.90;;;;;;5067315;28;20037;-72
2023/01/06 06:24:34;;;;;;;6.72;4.20;;;10.80;99.90;;;;;;5032797;28;20045;-72
2023/01/06 06:27:00;;;;;;;5.47;3.20;;;10.80;99.90;;;;;;5052036;28;20507;-72
2023/01/06 06:29:25;;;;;;;6.10;3.42;;;10.80;99.90;;;;;;5050041;28;20048;-72
2023/01/06 06:31:51;;;;;;;4.13;2.53;;;10.80;99.90;;;;;;5043118;28;20107;-72
2023/01/06 06:34:17;;;;;;;5.70;2.80;;;10.80;99.90;;;;;;5032978;28;20094;-72
2023/01/06 06:36:42;;;;;;;6.53;3.55;;;10.80;99.90;;;;;;5031555;28;20037;-72
2023/01/06 06:39:08;;;;;;;7.85;4.05;;;10.80;99.90;;;;;;5034323;28;20485;-72
2023/01/06 06:41:33;;;;;;;6.35;3.95;;;10.70;99.90;;;;;;5052100;28;20090;-71
2023/01/06 06:43:59;;;;;;;8.35;4.63;;;10.70;99.90;;;;;;5050232;28;20029;-72
2023/01/06 06:46:24;;;;;;;5.63;3.47;;;10.80;99.90;;;;;;5051294;28;20124;-71
2023/01/06 06:48:50;;;;;;;6.95;3.75;;;10.80;99.90;;;;;;5048464;28;20037;-72
2023/01/06 06:51:18;;;;;;;6.75;3.17;;;10.70;99.90;;;;;;5050169;28;20041;-72
2023/01/06 06:53:45;;;;;;;7.00;4.70;;;10.70;99.90;;;;;;5049863;28;20071;-72
2023/01/06 06:56:12;;;;;;;7.82;4.32;;;10.70;99.90;;;;;;5051538;28;20049;-71
2023/01/06 06:58:37;;;;;;;9.23;4.40;;;10.70;99.90;;;;;;5047902;28;20469;-71
2023/01/06 07:01:09;;;;;;;8.93;4.15;;;10.70;99.90;;;;;;5047368;28;20036;-72
2023/01/06 07:03:35;;;;;;;4.72;3.50;;;10.70;99.90;;;;;;5041336;28;20053;-72
2023/01/06 07:06:02;;;;;;;7.13;3.92;;;10.70;99.90;;;;;;5032963;28;20500;-72
2023/01/06 07:08:28;;;;;;;7.50;4.90;;;10.60;99.90;;;;;;5038328;28;20074;-71
2023/01/06 07:10:54;;;;;;;5.43;2.50;;;10.60;99.90;;;;;;5039073;28;20041;-72
2023/01/06 07:13:19;;;;;;;6.30;3.88;;;10.60;99.90;;;;;;5037615;28;20037;-72
2023/01/06 07:15:45;;;;;;;5.88;3.47;;;10.60;99.90;;;;;;5038284;28;20075;-71
2023/01/06 07:18:11;;;;;;;7.07;4.80;;;10.60;99.90;;;;;;5053272;28;20468;-72
2023/01/06 07:20:38;;;;;;;5.00;2.88;;;10.60;99.90;;;;;;5034713;28;20045;-71
2023/01/06 07:23:04;;;;;;;4.25;2.45;;;10.60;99.90;;;;;;5035876;28;20120;-71
2023/01/06 07:25:30;;;;;;;4.90;3.17;;;10.60;99.90;;;;;;5043402;28;20037;-72
2023/01/06 07:27:58;;;;;;;3.92;2.28;;;10.60;99.90;;;;;;5042308;28;20417;-71
2023/01/06 07:30:24;;;;;;;6.95;3.92;;;10.60;99.90;;;;;;5027361;28;20508;-71
2023/01/06 07:32:50;;;;;;;6.05;3.45;;;10.50;99.90;;;;;;5039198;28;20521;-71
2023/01/06 07:35:17;;;;;;;4.88;3.05;;;10.50;99.90;;;;;;5027521;28;20037;-71
2023/01/06 07:37:43;;;;;;;4.85;2.83;;;10.50;99.90;;;;;;5031607;28;20048;-71
2023/01/06 07:40:09;;;;;;;5.50;3.60;;;10.60;99.90;;;;;;5053178;28;20033;-71
2023/01/06 07:42:35;;;;;;;5.85;3.55;;;10.40;99.90;;;;;;5037541;28;20037;-71
2023/01/06 07:45:01;;;;;;;4.30;2.53;;;10.40;99.90;;;;;;5052239;28;20034;-71
2023/01/06 07:47:27;;;;;;;4.22;2.72;;;10.40;99.90;;;;;;5048805;28;20404;-71
2023/01/06 07:49:52;;;;;;;5.82;2.60;;;10.30;99.90;;;;;;5034121;28;20037;-71
2023/01/06 07:52:18;;;;;;;3.50;2.15;;;10.40;99.90;;;;;;5049547;28;20120;-71
2023/01/06 07:54:43;;;;;;;5.15;2.30;;;10.40;99.90;;;;;;5054248;28;20033;-72
2023/01/06 07:57:09;;;;;;;4.55;2.40;;;10.30;99.90;;;;;;5052965;28;20118;-72
2023/01/06 07:59:34;;;;;;;2.90;1.70;;;10.30;99.90;;;;;;5052617;28;20599;-72
2023/01/06 08:02:00;;;;;;;6.13;1.60;;;10.30;99.90;;;;;;5053240;28;20405;-72
2023/01/06 08:04:25;;;;;;;4.38;1.45;;;10.20;99.90;;;;;;5043774;28;20080;-72
2023/01/06 08:06:51;;;;;;;3.38;1.35;;;10.20;99.90;;;;;;5049819;28;20048;-72
2023/01/06 08:09:17;;;;;;;4.63;1.60;;;10.10;99.90;;;;;;5054556;28;20116;-72
2023/01/06 08:11:42;;;;;;;4.95;1.65;;;10.00;99.90;;;;;;5035654;28;20049;-72
2023/01/06 08:14:09;;;;;;;5.72;1.48;;;10.00;99.90;;;;;;5053640;28;20036;-72
2023/01/06 08:16:37;;;;;;;6.07;1.42;;;9.90;99.90;;;;;;5035087;28;20501;-72
2023/01/06 08:19:03;;;;;;;6.15;1.42;;;9.90;99.90;;;;;;5053819;28;20119;-72
2023/01/06 08:21:29;;;;;;;3.33;1.27;;;9.70;99.90;;;;;;5035369;28;20041;-72
2023/01/06 08:23:55;;;;;;;3.72;1.10;;;9.70;99.90;;;;;;5053317;28;20036;-72
2023/01/06 08:26:20;;;;;;;5.47;1.30;;;9.70;99.90;;;;;;5053082;28;20064;-72
2023/01/06 08:28:46;;;;;;;4.68;1.27;;;9.60;99.90;;;;;;5053530;28;20059;-72
2023/01/06 08:31:15;;;;;;;3.75;1.05;;;9.60;99.90;;;;;;5035812;28;20044;-72
2023/01/06 08:33:41;;;;;;;3.60;1.10;;;9.50;99.90;;;;;;5043616;28;20049;-72
2023/01/06 08:36:10;;;;;;;5.03;0.98;;;9.50;99.90;;;;;;5016920;28;20037;-72
2023/01/06 08:38:36;;;;;;;1.67;0.90;;;9.50;99.90;;;;;;5044463;28;20540;-72
2023/01/06 08:41:02;;;;;;;2.72;0.82;;;9.40;99.90;;;;;;5033584;28;20603;-72
2023/01/06 08:43:29;;;;;;;3.78;0.73;;;9.30;99.90;;;;;;5052667;28;20041;-72
2023/01/06 08:46:03;;;;;;;6.18;1.02;;;9.30;99.90;;;;;;5036128;28;20119;-72
2023/01/06 08:48:30;;;;;;;2.63;0.90;;;9.30;99.90;;;;;;5037508;28;20041;-72
2023/01/06 08:51:00;;;;;;;3.75;0.75;;;9.30;99.90;;;;;;5034890;28;20172;-71
2023/01/06 08:53:26;;;;;;;3.38;0.75;;;9.20;99.90;;;;;;5053749;28;20516;-72
2023/01/06 08:55:51;;;;;;;5.78;1.13;;;9.30;99.90;;;;;;5020509;28;20076;-75
2023/01/06 08:58:17;;;;;;;4.75;0.85;;;9.20;99.90;;;;;;5022694;28;20390;-72
2023/01/06 09:00:43;;;;;;;6.10;1.10;;;9.20;99.90;;;;;;5033345;28;20036;-72
2023/01/06 09:03:09;;;;;;;3.33;0.90;;;9.10;99.90;;;;;;5032438;28;20398;-72
2023/01/06 09:05:34;;;;;;;4.50;0.80;;;9.20;99.90;;;;;;5049953;28;20040;-71
2023/01/06 09:08:00;;;;;;;3.63;0.90;;;9.10;99.90;;;;;;5053167;28;20408;-71
2023/01/06 09:10:26;;;;;;;4.18;0.82;;;9.10;99.90;;;;;;5035973;28;20044;-72
2023/01/06 09:12:51;;;;;;;5.55;0.82;;;9.10;99.90;;;;;;5035582;28;20044;-72
2023/01/06 09:15:17;;;;;;;5.15;1.10;;;9.20;99.90;;;;;;5050790;28;20033;-72
2023/01/06 09:17:42;;;;;;;5.28;1.17;;;9.10;99.90;;;;;;5052039;28;20041;-72
2023/01/06 09:20:09;;;;;;;5.00;0.90;;;9.10;99.90;;;;;;5036185;28;20152;-72
2023/01/06 09:22:35;;;;;;;5.57;0.80;;;9.20;99.90;;;;;;5052722;28;20500;-72
2023/01/06 09:25:01;;;;;;;4.18;1.10;;;9.20;99.90;;;;;;5045794;28;20033;-72
2023/01/06 09:27:27;;;;;;;5.45;0.80;;;9.20;99.90;;;;;;5035150;28;20382;-72
2023/01/06 09:29:52;;;;;;;7.78;0.88;;;9.20;99.90;;;;;;5034234;28;20036;-72
2023/01/06 09:32:18;;;;;;;8.35;1.33;;;9.20;99.90;;;;;;5034195;28;20037;-72
2023/01/06 09:34:44;;;;;;;7.10;1.08;;;9.20;99.90;;;;;;5047337;28;20469;-72
2023/01/06 09:37:09;;;;;;;7.07;1.08;;;9.20;99.90;;;;;;5015809;28;20092;-72
2023/01/06 09:39:38;;;;;;;7.97;1.30;;;9.20;99.90;;;;;;5023507;28;20043;-72
2023/01/06 09:42:18;;;;;;;6.53;1.40;;;9.20;99.90;;;;;;5034213;28;20063;-72
2023/01/06 09:45:09;;;;;;;5.00;0.68;;;9.30;99.90;;;;;;5051095;28;20052;-72
2023/01/06 09:47:39;;;;;;;7.53;1.40;;;9.50;99.90;;;;;;5034260;28;20049;-72
2023/01/06 09:50:15;;;;;;;9.80;1.20;;;9.30;99.90;;;;;;5034999;28;20041;-72
2023/01/06 09:52:46;;;;;;;10.10;1.25;;;9.20;99.90;;;;;;5050689;28;20102;-72
2023/01/06 09:55:26;;;;;;;8.90;1.30;;;9.20;99.90;;;;;;5038443;28;20041;-72
2023/01/06 09:58:04;;;;;;;10.88;1.58;;;9.20;99.90;;;;;;5054609;28;20295;-72
2023/01/06 10:00:41;;;;;;;10.63;1.40;;;9.20;99.90;;;;;;5040230;28;20429;-72
2023/01/06 10:03:15;;;;;;;8.80;1.10;;;9.30;99.90;;;;;;5042408;28;20057;-72
2023/01/06 10:05:50;;;;;;;8.10;1.35;;;9.40;99.90;;;;;;5047892;28;20474;-72
2023/01/06 10:08:40;;;;;;;9.07;0.90;;;9.30;99.90;;;;;;5032473;28;20045;-72
2023/01/06 10:11:17;;;;;;;7.40;1.08;;;9.30;99.90;;;;;;5048736;28;20048;-72
2023/01/06 10:13:52;;;;;;;6.85;1.70;;;9.30;99.90;;;;;;5050362;28;20040;-72
2023/01/06 10:16:29;;;;;;;8.60;1.20;;;9.40;99.90;;;;;;5050192;28;20044;-72
2023/01/06 10:19:02;;;;;;;6.38;1.27;;;9.40;99.90;;;;;;5033864;28;20120;-72
2023/01/06 10:22:01;;;;;;;7.88;1.30;;;9.40;99.90;;;;;;5051761;28;20040;-72
2023/01/06 10:24:29;;;;;;;11.57;2.00;;;9.50;99.90;;;;;;5041207;28;20029;-72
2023/01/06 10:27:13;;;;;;;9.68;1.20;;;9.50;99.90;;;;;;5035140;28;20488;-73
2023/01/06 10:29:41;;;;;;;7.68;1.13;;;9.60;99.90;;;;;;5025271;28;20041;-72
2023/01/06 10:32:15;;;;;;;10.38;1.30;;;9.60;99.90;;;;;;5043555;28;20049;-72
2023/01/06 10:34:47;;;;;;;6.88;0.98;;;9.70;99.90;;;;;;5039397;28;20048;-72
2023/01/06 10:37:24;;;;;;;8.27;1.50;;;9.70;99.90;;;;;;5037846;28;20053;-73
2023/01/06 10:40:11;;;;;;;4.15;1.23;;;9.70;99.90;;;;;;5043967;28;20041;-72
2023/01/06 10:43:02;;;;;;;10.25;1.30;;;9.70;99.90;;;;;;5034154;28;20435;-72
2023/01/06 10:45:34;;;;;;;8.30;1.48;;;9.80;99.90;;;;;;5030489;28;20468;-73
2023/01/06 10:48:01;;;;;;;7.35;1.00;;;9.90;99.90;;;;;;5015403;28;20468;-72
2023/01/06 10:50:27;;;;;;;8.35;1.30;;;10.00;99.90;;;;;;5050781;28;20131;-72
2023/01/06 10:52:53;;;;;;;9.57;1.10;;;10.10;99.90;;;;;;5031915;28;20466;-72
2023/01/06 10:55:54;;;;;;;7.95;1.60;;;10.20;99.90;;;;;;5043835;28;20106;-72
2023/01/06 10:58:44;;;;;;;8.73;0.80;;;10.10;99.90;;;;;;5034699;28;20079;-73
2023/01/06 11:01:10;;;;;;;6.05;1.25;;;10.20;99.90;;;;;;5051420;28;20556;-72
2023/01/06 11:03:36;;;;;;;5.47;0.75;;;10.20;99.90;;;;;;5046423;28;20071;-73
2023/01/06 11:06:29;;;;;;;4.93;1.05;;;10.30;99.90;;;;;;5033316;28;20124;-73
2023/01/06 11:08:55;;;;;;;10.32;1.25;;;10.30;99.90;;;;;;5033498;28;20509;-72
2023/01/06 11:11:22;;;;;;;7.18;1.58;;;10.40;99.90;;;;;;5026992;28;20068;-72
2023/01/06 11:13:52;;;;;;;7.80;1.40;;;10.30;99.90;;;;;;5047897;28;20045;-72
2023/01/06 11:16:28;;;;;;;8.80;1.13;;;10.40;99.90;;;;;;5051713;28;20439;-73
2023/01/06 11:19:06;;;;;;;9.73;1.50;;;10.30;99.90;;;;;;5050415;28;20477;-72
2023/01/06 11:21:43;;;;;;;6.82;1.10;;;10.30;99.90;;;;;;5041999;28;20512;-73
2023/01/06 11:24:21;;;;;;;6.30;1.15;;;10.30;99.90;;;;;;5033337;28;20032;-73
2023/01/06 11:27:12;;;;;;;6.30;1.38;;;10.20;99.90;;;;;;5031395;28;20489;-72
2023/01/06 11:29:38;;;;;;;7.97;1.80;;;10.30;99.90;;;;;;5031084;28;20072;-73
2023/01/06 11:32:23;;;;;;;11.00;1.77;;;10.20;99.90;;;;;;5031456;28;20177;-73
2023/01/06 11:34:55;;;;;;;5.72;0.90;;;10.40;99.90;;;;;;5030898;28;20041;-73
2023/01/06 11:37:37;;;;;;;10.20;1.30;;;10.40;99.90;;;;;;5031212;28;20386;-73
2023/01/06 11:40:16;;;;;;;4.65;0.98;;;10.40;99.90;;;;;;5031318;28;20075;-73
2023/01/06 11:42:42;;;;;;;6.47;1.20;;;10.40;99.90;;;;;;5031686;28;20037;-73
2023/01/06 11:45:35;;;;;;;11.07;1.60;;;10.40;99.90;;;;;;5042904;28;20044;-73
2023/01/06 11:48:14;;;;;;;5.75;1.10;;;10.40;99.90;;;;;;5050929;28;20044;-73
2023/01/06 11:50:48;;;;;;;5.78;1.20;;;10.30;99.90;;;;;;5035988;28;20045;-73
2023/01/06 11:53:18;;;;;;;7.43;1.20;;;10.20;99.90;;;;;;5036535;28;20143;-73
2023/01/06 11:56:13;;;;;;;9.13;1.30;;;10.20;99.90;;;;;;5037600;28;20037;-73
2023/01/06 11:59:09;;;;;;;10.88;1.85;;;10.20;99.90;;;;;;5054468;28;20041;-73
2023/01/06 12:01:43;;;;;;;10.35;1.40;;;10.20;99.90;;;;;;5047886;28;20448;-73
2023/01/06 12:04:26;;;;;;;7.25;1.23;;;10.30;99.90;;;;;;5034546;28;20080;-73
2023/01/06 12:06:59;;;;;;;7.32;1.30;;;10.40;99.90;;;;;;5034532;28;20042;-73
2023/01/06 12:09:32;;;;;;;6.32;1.60;;;10.40;99.90;;;;;;5051317;28;20413;-73
2023/01/06 12:12:06;;;;;;;8.07;1.20;;;10.40;99.90;;;;;;5040089;28;20049;-73
2023/01/06 12:14:37;;;;;;;6.65;1.65;;;10.30;99.90;;;;;;5036709;28;20506;-73
2023/01/06 12:17:24;;;;;;;8.93;1.90;;;10.40;99.90;;;;;;5054117;28;20048;-73
2023/01/06 12:20:14;;;;;;;9.70;1.85;;;10.30;99.90;;;;;;5036706;28;20037;-73
2023/01/06 12:23:00;;;;;;;10.23;1.27;;;10.20;99.90;;;;;;5034461;28;20033;-73
2023/01/06 12:25:51;;;;;;;9.73;1.67;;;10.20;99.90;;;;;;5018436;28;20045;-73
2023/01/06 12:28:30;;;;;;;11.02;1.60;;;10.30;99.90;;;;;;5053697;28;20493;-73
2023/01/06 12:31:15;;;;;;;7.47;1.50;;;10.20;99.90;;;;;;5047048;28;20052;-72
2023/01/06 12:34:23;;;;;;;6.93;1.35;;;10.20;99.90;;;;;;5043848;28;20108;-73
2023/01/06 12:37:20;;;;;;;9.05;1.67;;;10.20;99.90;;;;;;5028441;28;20076;-73
2023/01/06 12:39:58;;;;;;;11.60;1.85;;;10.20;99.90;;;;;;5050794;28;20037;-73
2023/01/06 12:42:42;;;;;;;10.85;1.30;;;10.30;99.90;;;;;;5036620;28;20037;-73
2023/01/06 12:45:20;;;;;;;6.82;1.23;;;10.10;99.90;;;;;;5053256;28;20152;-73
2023/01/06 12:47:51;;;;;;;11.13;1.65;;;10.00;99.90;;;;;;5034599;28;20075;-73
2023/01/06 12:50:38;;;;;;;10.05;1.60;;;10.00;99.90;;;;;;5033562;28;20137;-73
2023/01/06 12:53:18;;;;;;;11.15;1.70;;;10.00;99.90;;;;;;5061359;28;20036;-73
2023/01/06 12:56:09;;;;;;;11.07;1.48;;;9.90;99.90;;;;;;5040435;28;20048;-73
2023/01/06 12:59:22;;;;;;;10.48;1.48;;;10.00;99.90;;;;;;5036801;28;20045;-73
2023/01/06 13:02:14;;;;;;;10.73;1.42;;;9.90;99.90;;;;;;5033013;28;20049;-73
2023/01/06 13:04:59;;;;;;;11.48;1.95;;;10.00;99.90;;;;;;5065317;28;20044;-73
2023/01/06 13:08:02;;;;;;;13.48;1.50;;;10.00;99.90;;;;;;5016626;28;20077;-73
2023/01/06 13:10:40;;;;;;;6.45;1.30;;;10.00;99.90;;;;;;5062044;28;20045;-73
2023/01/06 13:13:26;;;;;;;9.75;1.38;;;9.90;99.90;;;;;;5033018;28;20049;-73
2023/01/06 13:15:54;;;;;;;9.95;1.75;;;9.90;99.90;;;;;;5045428;28;20509;-73